< < Back
Terminal Aerodrome Forecast


Current Version              Previous Versions:   1  2  3  4  5  6  7  8  9  

Terminal Aerodrome Forecast

878
FTUS42 KFFC 271121
TAFMCN
TAF
KMCN 271121Z 2712/2812 09004KT P6SM FEW070
     FM271400 10007KT P6SM FEW045
     FM271800 11010KT P6SM FEW060
     FM280000 10004KT P6SM FEW080=



Latest METAR

673
SAUS80 KWBC 280800
MTRMCN
METAR KMCN 280753Z AUTO 00000KT 10SM CLR 21/19 A3007 RMK AO2 SLP177
T02110194 TSNO $


USA.gov is the U.S. government's official web portal to all federal, state and local government web resources and services.